Time;durP1;ratioP1;P1;durP2;ratioP2;P2;SDS_P1;SDS_P2;PMS_P1;PMS_P2;Temp;Humidity;BMP_temperature;BMP_pressure;BME280_temperature;BME280_humidity;BME280_pressure;Samples;Min_cycle;Max_cycle;Signal;HPM_P1;HPM_P2
2020/12/17 00:00:59;;;;;;;102.95;44.05;;;;;;;4.37;80.68;99740.38;2298595;77;21704;-65
2020/12/17 00:04:02;;;;;;;94.37;43.30;;;;;;;4.41;80.70;99743.32;2298754;77;21130;-65
2020/12/17 00:07:05;;;;;;;99.92;42.43;;;;;;;4.41;80.55;99743.75;2298642;77;21281;-65
2020/12/17 00:10:07;;;;;;;94.13;42.62;;;;;;;4.40;80.67;99747.25;2298562;77;21129;-65
2020/12/17 00:13:09;;;;;;;97.30;43.52;;;;;;;4.43;80.69;99743.29;2298798;77;21724;-65
2020/12/17 00:16:15;;;;;;;102.62;45.52;;;;;;;4.45;80.55;99741.08;2298876;77;21245;-65
2020/12/17 00:19:20;;;;;;;99.13;45.85;;;;;;;4.39;80.45;99741.19;2277004;77;21252;-66
2020/12/17 00:22:22;;;;;;;100.65;45.43;;;;;;;4.32;80.53;99737.00;2298401;77;21126;-66
2020/12/17 00:25:24;;;;;;;98.95;44.88;;;;;;;4.31;80.77;99741.36;2298855;77;21279;-66
2020/12/17 00:28:31;;;;;;;109.50;51.48;;;;;;;4.29;80.77;99744.41;2298356;77;21103;-65
2020/12/17 00:31:33;;;;;;;99.22;47.65;;;;;;;4.29;80.76;99738.38;2298549;77;21252;-65
2020/12/17 00:34:35;;;;;;;101.02;44.73;;;;;;;4.27;80.83;99740.16;2298722;77;22044;-64
2020/12/17 00:37:41;;;;;;;99.85;45.48;;;;;;;4.31;80.99;99743.08;2300545;77;21110;-65
2020/12/17 00:40:43;;;;;;;100.47;45.50;;;;;;;4.36;80.89;99736.06;2305927;77;21725;-64
2020/12/17 00:43:45;;;;;;;93.55;43.25;;;;;;;4.37;80.81;99744.27;2306384;77;21158;-65
2020/12/17 00:46:47;;;;;;;101.67;44.33;;;;;;;4.41;81.03;99735.95;2305887;77;21271;-65
2020/12/17 00:49:50;;;;;;;107.10;44.50;;;;;;;4.49;80.80;99744.45;2306158;77;21716;-64
2020/12/17 00:52:52;;;;;;;93.67;45.73;;;;;;;4.49;80.58;99737.50;2305920;77;21283;-65
2020/12/17 00:55:54;;;;;;;106.70;45.75;;;;;;;4.47;80.62;99739.74;2306391;77;21146;-65
2020/12/17 00:58:56;;;;;;;104.20;45.75;;;;;;;4.51;80.62;99744.83;2306389;77;21303;-65
2020/12/17 01:01:58;;;;;;;106.58;45.38;;;;;;;4.53;80.70;99743.50;2273778;77;21109;-65
2020/12/17 01:05:00;;;;;;;104.78;45.05;;;;;;;4.49;80.48;99745.29;2306347;77;21288;-65
2020/12/17 01:08:02;;;;;;;103.87;44.95;;;;;;;4.45;80.52;99741.08;2306388;77;21146;-65
2020/12/17 01:11:04;;;;;;;99.83;45.03;;;;;;;4.47;80.70;99737.98;2306004;77;21692;-64
2020/12/17 01:14:08;;;;;;;101.02;46.15;;;;;;;4.52;80.68;99737.88;2305784;77;21244;-64
2020/12/17 01:17:10;;;;;;;98.35;46.50;;;;;;;4.58;80.54;99744.69;2306357;77;21259;-64
2020/12/17 01:20:12;;;;;;;97.17;45.03;;;;;;;4.59;80.57;99738.16;2306176;77;21112;-65
2020/12/17 01:23:14;;;;;;;99.00;44.85;;;;;;;4.58;80.40;99731.24;2274921;77;21279;-65
2020/12/17 01:26:18;;;;;;;106.10;46.23;;;;;;;4.58;80.49;99733.00;2305779;77;21724;-65
2020/12/17 01:29:22;;;;;;;108.10;47.10;;;;;;;4.65;80.89;99728.08;2305583;77;21142;-65
2020/12/17 01:32:24;;;;;;;107.72;46.98;;;;;;;4.72;80.27;99735.30;2306229;77;21693;-64
2020/12/17 01:35:26;;;;;;;104.85;48.33;;;;;;;4.64;80.36;99734.15;2305925;77;21269;-65
2020/12/17 01:38:28;;;;;;;110.22;47.50;;;;;;;4.67;80.41;99738.85;2305785;77;21296;-64
2020/12/17 01:41:30;;;;;;;123.70;49.53;;;;;;;4.66;80.36;99739.73;2306350;77;21130;-65
2020/12/17 01:44:32;;;;;;;117.13;46.98;;;;;;;4.67;80.50;99731.52;2306030;77;21701;-64
2020/12/17 01:47:35;;;;;;;119.30;49.42;;;;;;;4.68;80.31;99731.47;2306076;77;21256;-65
2020/12/17 01:50:37;;;;;;;115.82;46.65;;;;;;;4.72;80.36;99731.41;2306315;77;21292;-64
2020/12/17 01:53:39;;;;;;;114.82;46.60;;;;;;;4.69;80.40;99732.32;2305826;77;21252;-65
2020/12/17 01:56:41;;;;;;;117.28;45.83;;;;;;;4.66;80.35;99730.63;2306190;77;21276;-65
2020/12/17 01:59:43;;;;;;;116.90;48.20;;;;;;;4.70;80.41;99726.24;2305861;77;21276;-65
2020/12/17 02:02:45;;;;;;;113.57;46.92;;;;;;;4.72;80.42;99735.30;2306354;77;21260;-64
2020/12/17 02:05:47;;;;;;;108.50;45.33;;;;;;;4.71;80.49;99733.13;2305789;77;21268;-65
2020/12/17 02:08:49;;;;;;;103.75;43.90;;;;;;;4.76;80.34;99733.05;2305923;77;21272;-65
2020/12/17 02:11:51;;;;;;;109.55;46.98;;;;;;;4.75;80.36;99732.63;2305814;77;21252;-64
2020/12/17 02:14:57;;;;;;;114.03;48.63;;;;;;;4.76;80.57;99727.84;2305667;77;21268;-65
2020/12/17 02:18:02;;;;;;;113.75;47.25;;;;;;;4.72;80.36;99725.75;2305784;77;21269;-65
2020/12/17 02:21:05;;;;;;;107.80;44.27;;;;;;;4.63;80.42;99724.67;2305640;77;21688;-64
2020/12/17 02:24:07;;;;;;;106.92;44.23;;;;;;;4.69;80.59;99724.06;2305764;77;21252;-64
2020/12/17 02:27:11;;;;;;;107.20;43.13;;;;;;;4.68;80.62;99722.80;2305962;77;21273;-64
2020/12/17 02:30:14;;;;;;;107.70;43.98;;;;;;;4.67;80.49;99725.02;2305639;77;21252;-64
2020/12/17 02:33:18;;;;;;;103.53;42.58;;;;;;;4.63;80.52;99728.11;2304455;77;21557;-64
2020/12/17 02:36:20;;;;;;;98.58;41.53;;;;;;;4.76;80.82;99723.49;2305771;77;21259;-64
2020/12/17 02:39:22;;;;;;;104.53;43.10;;;;;;;4.75;80.47;99723.07;2306039;77;21276;-65
2020/12/17 02:42:24;;;;;;;103.15;42.88;;;;;;;4.73;80.54;99720.13;2305798;77;21739;-64
2020/12/17 02:45:26;;;;;;;99.03;42.55;;;;;;;4.73;80.63;99718.37;2305725;77;21192;-64
2020/12/17 02:48:28;;;;;;;104.12;44.67;;;;;;;4.76;80.43;99720.89;2305792;77;21272;-64
2020/12/17 02:51:30;;;;;;;110.70;44.33;;;;;;;4.80;80.40;99720.39;2273975;77;21280;-64
2020/12/17 02:54:36;;;;;;;102.50;43.13;;;;;;;4.71;80.30;99723.19;2303561;77;21110;-64
2020/12/17 02:57:41;;;;;;;105.32;42.67;;;;;;;4.61;80.41;99719.93;2305796;77;21133;-64
2020/12/17 03:00:43;;;;;;;109.52;45.40;;;;;;;4.62;80.64;99717.30;2306043;77;21293;-64
2020/12/17 03:03:45;;;;;;;110.97;44.20;;;;;;;4.60;80.59;99713.89;2305992;77;21712;-64
2020/12/17 03:06:47;;;;;;;108.30;44.05;;;;;;;4.54;80.60;99719.23;2274866;77;21275;-64
2020/12/17 03:09:49;;;;;;;106.52;43.15;;;;;;;4.55;80.68;99714.88;2306040;77;21252;-64
2020/12/17 03:12:51;;;;;;;105.95;44.00;;;;;;;4.48;80.72;99712.85;2305747;77;21271;-64
2020/12/17 03:15:53;;;;;;;104.85;41.25;;;;;;;4.47;80.73;99715.06;2306218;77;21277;-64
2020/12/17 03:18:57;;;;;;;106.10;42.25;;;;;;;4.50;80.83;99715.83;2306169;77;21273;-65
2020/12/17 03:21:59;;;;;;;100.50;42.35;;;;;;;4.51;80.92;99714.08;2305823;77;21747;-65
2020/12/17 03:25:03;;;;;;;100.25;42.03;;;;;;;4.60;80.90;99716.95;2305683;77;21162;-65
2020/12/17 03:28:08;;;;;;;102.40;42.23;;;;;;;4.57;80.76;99713.09;2305631;77;21127;-64
2020/12/17 03:31:11;;;;;;;119.87;54.20;;;;;;;4.49;80.66;99711.52;2306192;77;21245;-64
2020/12/17 03:34:13;;;;;;;109.65;43.28;;;;;;;4.45;80.83;99718.99;2305764;77;21083;-64
2020/12/17 03:37:15;;;;;;;106.00;42.43;;;;;;;4.47;80.89;99715.91;2305751;77;21295;-64
2020/12/17 03:40:17;;;;;;;108.97;44.53;;;;;;;4.43;80.80;99718.16;2299112;77;21732;-64
2020/12/17 03:43:21;;;;;;;100.78;41.75;;;;;;;4.43;80.91;99723.80;2298689;77;21733;-64
2020/12/17 03:46:25;;;;;;;111.37;43.65;;;;;;;4.44;81.05;99719.87;2277305;77;21712;-64
2020/12/17 03:49:27;;;;;;;110.45;43.38;;;;;;;4.47;80.94;99723.70;2298380;77;21736;-64
2020/12/17 03:52:29;;;;;;;117.15;44.13;;;;;;;4.49;81.01;99721.06;2299517;77;21288;-64
2020/12/17 03:55:32;;;;;;;110.15;43.13;;;;;;;4.45;80.72;99726.79;2298699;77;21725;-64
2020/12/17 03:58:38;;;;;;;108.60;41.33;;;;;;;4.38;80.84;99726.93;2298702;77;21241;-64
2020/12/17 04:01:40;;;;;;;105.97;43.05;;;;;;;4.26;80.88;99731.95;2298449;77;21728;-64
2020/12/17 04:04:43;;;;;;;105.67;42.40;;;;;;;4.22;81.09;99731.59;2298502;77;21724;-64
2020/12/17 04:07:47;;;;;;;111.47;43.80;;;;;;;4.20;81.27;99735.52;2288327;77;21130;-64
2020/12/17 04:10:49;;;;;;;107.35;43.17;;;;;;;4.27;81.49;99729.77;2298823;77;21711;-64
2020/12/17 04:13:51;;;;;;;105.20;42.93;;;;;;;4.33;81.21;99725.28;2298825;77;21264;-64
2020/12/17 04:16:55;;;;;;;108.87;43.92;;;;;;;4.35;81.13;99729.14;2298787;77;21288;-64
2020/12/17 04:19:58;;;;;;;102.12;41.68;;;;;;;4.36;81.14;99731.31;2298704;77;21260;-64
2020/12/17 04:23:00;;;;;;;103.27;41.02;;;;;;;4.35;81.10;99725.25;2298638;77;21712;-64
2020/12/17 04:26:02;;;;;;;100.65;41.25;;;;;;;4.40;81.18;99725.17;2298798;77;21241;-64
2020/12/17 04:29:05;;;;;;;105.12;41.33;;;;;;;4.43;81.17;99725.95;2298935;77;21261;-64
2020/12/17 04:32:08;;;;;;;110.80;42.40;;;;;;;4.40;80.91;99724.72;2298776;77;21716;-64
2020/12/17 04:35:10;;;;;;;107.05;41.42;;;;;;;4.26;81.21;99731.49;2298593;77;21272;-64
2020/12/17 04:38:13;;;;;;;113.22;42.23;;;;;;;4.18;81.22;99731.23;2296942;77;21768;-64
2020/12/17 04:41:15;;;;;;;106.27;42.08;;;;;;;4.05;81.34;99730.62;2288642;78;21064;-64
2020/12/17 04:44:17;;;;;;;114.32;43.85;;;;;;;4.01;81.64;99730.27;2259205;78;21566;-64
2020/12/17 04:47:22;;;;;;;110.03;43.13;;;;;;;4.08;81.69;99731.86;2288903;78;21265;-64
2020/12/17 04:50:24;;;;;;;107.80;42.73;;;;;;;4.10;81.64;99732.70;2288695;78;21135;-64
2020/12/17 04:53:28;;;;;;;101.10;42.55;;;;;;;4.14;81.88;99740.39;2289067;78;21281;-64
2020/12/17 04:56:30;;;;;;;110.10;42.17;;;;;;;4.27;81.69;99734.51;2288401;78;21139;-64
2020/12/17 04:59:33;;;;;;;108.35;44.00;;;;;;;4.26;81.43;99741.03;2288580;78;21106;-64
2020/12/17 05:02:35;;;;;;;110.08;41.20;;;;;;;4.26;81.58;99740.58;2289074;78;21261;-64
2020/12/17 05:05:37;;;;;;;116.85;45.75;;;;;;;4.25;81.29;99740.62;2288815;78;21269;-64
2020/12/17 05:08:39;;;;;;;116.35;43.35;;;;;;;4.14;81.43;99742.99;2288576;78;21268;-64
2020/12/17 05:11:46;;;;;;;115.88;45.28;;;;;;;4.04;81.66;99747.08;2288546;78;21103;-64
2020/12/17 05:14:48;;;;;;;105.70;40.35;;;;;;;3.98;81.92;99750.69;2288920;78;21130;-64
2020/12/17 05:17:52;;;;;;;113.45;41.63;;;;;;;3.95;82.00;99751.59;2289069;78;21272;-65
2020/12/17 05:20:54;;;;;;;106.67;40.20;;;;;;;4.04;82.25;99759.64;2288545;78;21118;-64
2020/12/17 05:23:57;;;;;;;113.22;41.28;;;;;;;4.05;82.10;99754.00;2288544;78;21099;-64
2020/12/17 05:26:59;;;;;;;117.93;43.65;;;;;;;4.09;81.96;99754.35;2288539;78;21135;-64
2020/12/17 05:30:01;;;;;;;114.42;44.20;;;;;;;4.12;82.12;99755.59;2288515;78;21099;-65
2020/12/17 05:33:05;;;;;;;106.37;42.95;;;;;;;4.23;81.88;99753.63;2288545;78;21122;-65
2020/12/17 05:36:09;;;;;;;110.88;44.10;;;;;;;4.25;81.72;99756.20;2288365;78;21127;-64
2020/12/17 05:39:12;;;;;;;109.55;43.95;;;;;;;4.30;81.92;99747.42;2292301;77;21313;-65
2020/12/17 05:42:15;;;;;;;113.10;45.20;;;;;;;4.37;81.65;99748.59;2298353;77;21280;-65
2020/12/17 05:45:17;;;;;;;106.75;43.45;;;;;;;4.36;81.53;99749.05;2298533;77;21315;-65
2020/12/17 05:48:22;;;;;;;108.12;42.03;;;;;;;4.40;81.55;99751.99;2298462;77;21229;-65
2020/12/17 05:51:24;;;;;;;110.90;42.23;;;;;;;4.41;81.59;99752.84;2298800;77;21257;-65
2020/12/17 05:54:26;;;;;;;106.40;42.48;;;;;;;4.44;81.57;99751.47;2298692;77;21284;-65
2020/12/17 05:57:28;;;;;;;111.85;41.95;;;;;;;4.51;81.36;99754.34;2298945;77;21304;-65
2020/12/17 06:00:30;;;;;;;112.80;43.10;;;;;;;4.45;81.24;99754.48;2298554;77;21744;-65
2020/12/17 06:03:32;;;;;;;111.20;41.75;;;;;;;4.44;81.46;99758.84;2298465;77;21708;-65
2020/12/17 06:06:34;;;;;;;113.57;43.30;;;;;;;4.48;81.64;99756.59;2298618;77;21265;-65
2020/12/17 06:09:37;;;;;;;106.92;40.90;;;;;;;4.48;81.21;99748.80;2298571;77;21091;-65
2020/12/17 06:12:39;;;;;;;110.70;42.55;;;;;;;4.45;81.38;99749.30;2298432;77;21272;-65
2020/12/17 06:15:41;;;;;;;104.50;39.58;;;;;;;4.43;81.36;99753.68;2298904;77;21272;-64
2020/12/17 06:18:43;;;;;;;104.47;40.70;;;;;;;4.36;81.45;99750.34;2298451;77;21261;-64
2020/12/17 06:21:45;;;;;;;105.27;39.78;;;;;;;4.42;81.67;99750.20;2298817;77;21280;-65
2020/12/17 06:24:47;;;;;;;101.10;39.65;;;;;;;4.42;81.42;99754.10;2298358;77;21726;-65
2020/12/17 06:27:49;;;;;;;106.32;40.05;;;;;;;4.40;81.32;99751.99;2298390;77;21249;-65
2020/12/17 06:30:52;;;;;;;105.97;39.78;;;;;;;4.30;81.45;99753.92;2298880;77;21245;-65
2020/12/17 06:33:54;;;;;;;99.67;37.03;;;;;;;4.27;81.46;99747.95;2298409;77;21269;-66
2020/12/17 06:36:57;;;;;;;99.77;38.80;;;;;;;4.27;81.69;99747.95;2275842;77;21312;-65
2020/12/17 06:39:59;;;;;;;90.55;35.50;;;;;;;4.26;81.63;99747.08;2276539;77;21711;-65
2020/12/17 06:43:05;;;;;;;90.85;36.38;;;;;;;4.23;81.59;99754.94;2305817;77;21229;-64
2020/12/17 06:46:07;;;;;;;100.42;38.85;;;;;;;4.23;81.72;99751.49;2305905;77;21271;-65
2020/12/17 06:49:10;;;;;;;100.38;37.85;;;;;;;4.19;81.71;99753.73;2305777;77;21248;-64
2020/12/17 06:52:14;;;;;;;96.15;37.15;;;;;;;4.15;81.95;99756.39;2306164;77;21299;-65
2020/12/17 06:55:16;;;;;;;93.95;37.00;;;;;;;4.18;81.88;99762.41;2305760;77;21276;-65
2020/12/17 06:58:18;;;;;;;99.13;38.63;;;;;;;4.22;81.94;99765.36;2306286;77;21252;-64
2020/12/17 07:01:20;;;;;;;103.60;38.58;;;;;;;4.22;81.87;99770.09;2306269;77;21277;-65
2020/12/17 07:04:22;;;;;;;103.53;38.48;;;;;;;4.29;81.69;99782.52;2305692;77;21153;-64
2020/12/17 07:07:26;;;;;;;98.90;38.15;;;;;;;4.17;81.63;99775.84;2305658;77;21114;-65
2020/12/17 07:10:29;;;;;;;99.90;39.83;;;;;;;4.19;81.85;99790.94;2305642;77;21138;-65
2020/12/17 07:13:31;;;;;;;111.62;38.25;;;;;;;4.26;82.02;99791.68;2305862;77;21280;-65
2020/12/17 07:16:35;;;;;;;104.70;40.50;;;;;;;4.22;81.92;99784.83;2305984;77;21746;-65
2020/12/17 07:19:39;;;;;;;103.20;40.55;;;;;;;4.30;81.91;99786.84;2305741;77;21272;-65
2020/12/17 07:22:41;;;;;;;101.33;40.40;;;;;;;4.33;81.91;99781.13;2305647;77;21307;-65
2020/12/17 07:25:44;;;;;;;101.95;39.58;;;;;;;4.31;81.79;99779.02;2306001;77;21277;-65
2020/12/17 07:28:46;;;;;;;103.42;40.98;;;;;;;4.35;81.81;99788.89;2305808;77;21573;-65
2020/12/17 07:31:48;;;;;;;96.55;39.65;;;;;;;4.38;81.93;99788.81;2306265;77;21240;-65
2020/12/17 07:34:51;;;;;;;100.72;40.33;;;;;;;4.36;81.73;99785.87;2305883;77;21130;-65
2020/12/17 07:37:55;;;;;;;104.58;39.58;;;;;;;4.36;81.71;99788.47;2305916;77;21260;-65
2020/12/17 07:40:57;;;;;;;100.50;40.38;;;;;;;4.39;81.86;99788.39;2291165;77;21269;-65
2020/12/17 07:44:02;;;;;;;98.55;39.70;;;;;;;4.48;81.80;99788.19;2288387;78;21146;-65
2020/12/17 07:47:03;;;;;;;98.87;40.65;;;;;;;4.48;81.68;99786.47;2288034;78;21135;-65
2020/12/17 07:50:05;;;;;;;101.53;39.05;;;;;;;4.54;81.73;99789.39;2288957;78;21285;-66
2020/12/17 07:53:07;;;;;;;98.87;39.48;;;;;;;4.56;81.56;99788.05;2288721;78;21127;-65
2020/12/17 07:56:10;;;;;;;88.20;36.75;;;;;;;4.58;81.79;99784.97;2288592;78;21135;-65
2020/12/17 07:59:15;;;;;;;82.33;35.25;;;;;;;4.63;81.47;99795.67;2288827;78;21300;-65
2020/12/17 08:02:19;;;;;;;94.22;39.53;;;;;;;4.56;81.33;99795.84;2288515;78;21705;-65
2020/12/17 08:05:25;;;;;;;93.72;39.75;;;;;;;4.54;81.58;99788.52;2288453;78;21297;-65
2020/12/17 08:08:25;;;;;;;67.97;27.52;;;;;;;4.57;81.68;99787.14;2287021;78;21129;-65
2020/12/17 08:11:27;;;;;;;60.28;25.27;;;;;;;4.54;81.21;99788.52;2288668;78;21130;-65
2020/12/17 08:14:30;;;;;;;57.95;23.38;;;;;;;4.41;81.22;99776.22;2288877;78;21261;-64
2020/12/17 08:17:33;;;;;;;55.90;24.12;;;;;;;4.21;81.44;99785.70;2288279;78;21123;-65
2020/12/17 08:20:36;;;;;;;66.05;26.68;;;;;;;4.12;81.61;99784.15;2288703;78;21716;-64
2020/12/17 08:23:39;;;;;;;67.35;27.82;;;;;;;4.11;82.14;99783.76;2288368;78;21585;-65
2020/12/17 08:26:44;;;;;;;66.05;26.82;;;;;;;4.09;82.09;99786.36;2260426;78;21135;-65
2020/12/17 08:29:48;;;;;;;67.62;28.32;;;;;;;4.11;82.17;99784.60;2288369;78;21245;-64
2020/12/17 08:32:50;;;;;;;61.15;26.07;;;;;;;4.21;82.06;99785.28;2288687;78;21143;-64
2020/12/17 08:35:53;;;;;;;65.60;28.40;;;;;;;4.24;81.71;99784.34;2288594;78;21285;-65
2020/12/17 08:38:55;;;;;;;67.17;27.13;;;;;;;4.27;81.85;99789.05;2288763;78;21698;-65
2020/12/17 08:41:57;;;;;;;68.87;29.32;;;;;;;4.39;81.76;99786.64;2289138;78;21266;-65
2020/12/17 08:45:01;;;;;;;74.47;30.97;;;;;;;4.49;81.61;99796.41;2288936;78;21276;-64
2020/12/17 08:48:04;;;;;;;72.53;30.02;;;;;;;4.56;81.20;99802.34;2288561;78;21114;-64
2020/12/17 08:51:06;;;;;;;;;;;;;;;4.56;80.67;99799.75;2291583;78;21166;-65
2020/12/17 08:54:08;;;;;;;75.60;30.55;;;;;;;4.47;80.22;99807.29;2288630;78;20418;-65
2020/12/17 08:57:11;;;;;;;81.75;29.82;;;;;;;4.49;80.60;99809.40;2288977;78;21277;-65
2020/12/17 09:00:13;;;;;;;74.60;32.50;;;;;;;4.47;80.11;99804.69;2288743;78;21075;-65
2020/12/17 09:03:18;;;;;;;75.32;32.28;;;;;;;4.41;80.31;99807.39;2288653;78;21752;-65
2020/12/17 09:06:20;;;;;;;77.22;33.05;;;;;;;4.44;80.12;99808.20;2288432;78;21107;-64
2020/12/17 09:09:25;;;;;;;85.47;35.70;;;;;;;4.39;80.10;99811.33;2288937;78;21701;-65
2020/12/17 09:12:28;;;;;;;75.85;34.13;;;;;;;4.49;80.41;99806.34;2288961;78;21289;-65
2020/12/17 09:15:31;;;;;;;;;;;;;;;4.59;80.03;99810.92;2291892;78;21268;-65
2020/12/17 09:18:33;;;;;;;81.30;34.92;;;;;;;4.69;79.98;99809.83;2288430;78;20131;-65
2020/12/17 09:21:35;;;;;;;82.22;37.73;;;;;;;4.86;80.13;99810.77;2288696;78;21151;-64
2020/12/17 09:24:38;;;;;;;82.42;37.08;;;;;;;4.97;79.26;99813.16;2288486;78;21123;-65
2020/12/17 09:27:42;;;;;;;83.87;37.58;;;;;;;4.95;79.25;99802.37;2288716;78;21126;-64
2020/12/17 09:30:47;;;;;;;84.62;38.70;;;;;;;4.97;78.94;99799.28;2260436;78;21277;-65
2020/12/17 09:33:49;;;;;;;87.60;38.45;;;;;;;5.10;79.25;99798.55;2288790;78;21702;-65
2020/12/17 09:36:54;;;;;;;85.15;39.42;;;;;;;5.20;78.98;99797.45;2260324;78;21262;-65
2020/12/17 09:39:56;;;;;;;85.22;38.90;;;;;;;5.20;78.27;99795.72;2260458;78;21285;-64
2020/12/17 09:42:59;;;;;;;83.52;39.50;;;;;;;5.25;78.50;99793.45;2288509;78;21167;-65
2020/12/17 09:46:01;;;;;;;;;;;;;;;5.28;78.14;99798.58;2291206;78;21134;-64
2020/12/17 09:49:03;;;;;;;82.23;39.20;;;;;;;5.38;77.82;99794.87;2288927;78;20158;-65
2020/12/17 09:52:05;;;;;;;89.28;41.88;;;;;;;5.47;77.74;99797.69;2288508;78;21122;-65
2020/12/17 09:55:10;;;;;;;83.75;41.68;;;;;;;5.50;77.85;99790.67;2288865;78;21268;-65
2020/12/17 09:58:13;;;;;;;82.78;39.65;;;;;;;5.54;77.40;99777.97;2288879;78;21091;-65
2020/12/17 10:01:15;;;;;;;82.95;41.83;;;;;;;5.66;77.67;99779.43;2288511;78;21142;-65
2020/12/17 10:04:18;;;;;;;77.65;39.90;;;;;;;5.73;77.04;99774.47;2288402;78;21107;-64
2020/12/17 10:07:20;;;;;;;78.80;39.25;;;;;;;5.85;76.04;99772.44;2288506;78;21123;-64
2020/12/17 10:10:22;;;;;;;78.40;40.00;;;;;;;5.89;76.53;99772.77;2288771;78;21110;-64
2020/12/17 10:13:25;;;;;;;81.05;40.63;;;;;;;5.97;76.59;99775.16;2260548;78;21597;-65
2020/12/17 10:16:27;;;;;;;83.90;42.27;;;;;;;6.05;76.11;99775.39;2288958;78;21273;-65
2020/12/17 10:19:29;;;;;;;80.53;40.73;;;;;;;6.14;76.11;99769.06;2288514;78;21602;-65
2020/12/17 10:22:31;;;;;;;82.08;41.70;;;;;;;6.09;75.85;99769.62;2288651;78;21118;-64
2020/12/17 10:25:34;;;;;;;81.82;40.52;;;;;;;6.02;76.00;99768.97;2288811;78;21293;-64
2020/12/17 10:28:36;;;;;;;81.82;40.80;;;;;;;5.93;75.45;99765.26;2288548;78;21147;-65
2020/12/17 10:31:38;;;;;;;79.75;40.35;;;;;;;5.89;76.15;99767.56;2288635;78;21553;-65
2020/12/17 10:34:40;;;;;;;73.47;37.03;;;;;;;6.11;76.38;99762.64;2288408;78;21582;-64
2020/12/17 10:37:42;;;;;;;70.75;36.80;;;;;;;6.24;75.93;99767.06;2288808;78;21268;-65
2020/12/17 10:40:45;;;;;;;80.42;37.45;;;;;;;6.47;76.32;99761.19;2293673;77;21300;-64
2020/12/17 10:43:47;;;;;;;66.35;34.48;;;;;;;6.62;75.45;99762.48;2298469;77;21329;-65
2020/12/17 10:46:49;;;;;;;64.72;34.27;;;;;;;6.64;74.11;99755.91;2298842;77;21118;-64
2020/12/17 10:49:54;;;;;;;69.75;34.40;;;;;;;6.71;74.82;99757.00;2298234;77;21122;-64
2020/12/17 10:52:56;;;;;;;69.55;35.30;;;;;;;6.84;74.83;99757.48;2298645;77;21730;-65
2020/12/17 10:56:00;;;;;;;69.27;34.75;;;;;;;6.88;74.88;99755.63;2298156;77;21099;-65
2020/12/17 10:59:03;;;;;;;65.30;33.88;;;;;;;7.02;74.71;99753.90;2298511;77;21692;-65
2020/12/17 11:02:05;;;;;;;61.35;30.32;;;;;;;7.17;74.86;99748.63;2298416;77;21249;-65
2020/12/17 11:05:07;;;;;;;61.90;31.23;;;;;;;7.32;74.22;99749.44;2298587;77;21153;-65
2020/12/17 11:08:09;;;;;;;52.73;27.48;;;;;;;7.40;73.21;99741.37;2298418;77;21681;-65
2020/12/17 11:11:12;;;;;;;52.78;26.23;;;;;;;7.36;72.42;99747.59;2298218;77;21134;-65
2020/12/17 11:14:14;;;;;;;51.77;28.00;;;;;;;7.13;71.97;99752.27;2298773;77;21264;-65
2020/12/17 11:17:19;;;;;;;58.00;27.62;;;;;;;6.96;72.88;99751.03;2298377;77;21261;-65
2020/12/17 11:23:50;;;;;;;51.58;26.77;;;;;;;6.99;72.50;99750.92;2286277;77;21160;-65
2020/12/17 11:27:06;;;;;;;53.92;28.00;;;;;;;7.05;72.41;99753.80;2298231;77;21724;-65
2020/12/17 11:30:09;;;;;;;55.70;27.82;;;;;;;7.04;72.58;99757.30;2276180;77;21142;-65
2020/12/17 11:33:14;;;;;;;;;;;;;;;6.94;72.76;99752.84;2301153;77;21725;-65
2020/12/17 11:36:16;;;;;;;60.05;27.45;;;;;;;6.92;72.55;99753.33;2298374;77;20548;-65
2020/12/17 11:39:18;;;;;;;53.75;28.65;;;;;;;6.96;73.12;99752.80;2298372;77;21280;-65
2020/12/17 11:42:20;;;;;;;55.83;28.67;;;;;;;7.06;72.89;99753.74;2298524;77;21170;-65
2020/12/17 11:45:23;;;;;;;57.88;28.87;;;;;;;7.07;72.79;99750.24;2276813;77;21272;-65
2020/12/17 11:48:27;;;;;;;53.35;28.60;;;;;;;7.05;72.60;99749.88;2298590;77;21277;-65
2020/12/17 11:51:29;;;;;;;56.58;28.40;;;;;;;7.03;71.87;99746.02;2298602;77;21296;-65
2020/12/17 11:54:31;;;;;;;57.30;27.40;;;;;;;7.03;72.17;99747.33;2298333;77;21261;-65
2020/12/17 11:57:33;;;;;;;52.35;27.93;;;;;;;6.99;72.43;99743.56;2298617;77;21725;-65
2020/12/17 12:00:35;;;;;;;52.08;25.97;;;;;;;6.92;72.35;99728.55;2298613;77;21269;-65
2020/12/17 12:03:37;;;;;;;52.67;26.23;;;;;;;6.86;72.62;99739.18;2298624;77;21688;-65
2020/12/17 12:06:39;;;;;;;53.02;25.97;;;;;;;6.86;72.62;99739.18;2298531;77;21116;-65
2020/12/17 12:09:43;;;;;;;54.98;27.05;;;;;;;6.89;72.64;99727.34;2298420;77;21276;-65
2020/12/17 12:12:48;;;;;;;50.03;25.32;;;;;;;6.98;72.24;99728.80;2298627;77;21677;-65
2020/12/17 12:15:51;;;;;;;51.08;25.45;;;;;;;6.96;72.42;99727.55;2299049;77;21257;-65
2020/12/17 12:18:53;;;;;;;51.30;24.87;;;;;;;6.84;72.41;99732.71;2298697;77;21711;-65
2020/12/17 12:21:55;;;;;;;51.10;24.30;;;;;;;6.79;72.12;99731.15;2298567;77;21241;-65
2020/12/17 12:24:57;;;;;;;50.85;23.98;;;;;;;6.68;72.27;99727.13;2298604;77;21720;-65
2020/12/17 12:27:59;;;;;;;48.73;23.60;;;;;;;6.62;72.41;99729.05;2298510;77;21265;-65
2020/12/17 12:31:03;;;;;;;49.30;23.83;;;;;;;6.56;72.55;99732.23;2299071;77;21669;-65
2020/12/17 12:34:05;;;;;;;52.27;26.77;;;;;;;6.56;72.78;99728.78;2298688;77;21573;-65
2020/12/17 12:37:07;;;;;;;51.58;26.00;;;;;;;6.63;72.95;99722.48;2299037;77;21269;-65
2020/12/17 12:40:13;;;;;;;52.85;25.92;;;;;;;6.56;72.27;99721.80;2297803;77;21245;-65
2020/12/17 12:43:14;;;;;;;46.90;23.77;;;;;;;6.45;71.85;99722.61;2288015;78;21112;-65
2020/12/17 12:46:17;;;;;;;57.08;25.10;;;;;;;6.35;72.13;99718.11;2289060;78;21280;-65
2020/12/17 12:49:25;;;;;;;50.60;23.73;;;;;;;6.33;72.58;99711.23;2288429;78;21577;-65
2020/12/17 12:52:27;;;;;;;48.85;23.87;;;;;;;6.29;72.55;99710.91;2288459;78;21088;-65
2020/12/17 12:55:34;;;;;;;48.08;24.27;;;;;;;6.26;72.67;99705.33;2260342;78;21123;-66
2020/12/17 12:58:37;;;;;;;47.08;22.75;;;;;;;6.24;72.61;99701.47;2288454;78;21099;-65
2020/12/17 13:01:43;;;;;;;49.25;23.80;;;;;;;6.21;71.65;99704.17;2288644;78;21103;-65
2020/12/17 13:04:45;;;;;;;46.25;23.12;;;;;;;6.08;72.45;99708.04;2260477;78;22053;-65
2020/12/17 13:07:48;;;;;;;46.85;24.00;;;;;;;6.01;72.48;99706.50;2289038;78;21262;-65
2020/12/17 13:10:50;;;;;;;52.27;25.32;;;;;;;5.93;72.46;99705.36;2288764;78;21697;-65
2020/12/17 13:13:53;;;;;;;48.20;23.90;;;;;;;5.85;72.73;99705.59;2288668;78;21072;-65
2020/12/17 13:16:55;;;;;;;52.27;24.35;;;;;;;5.73;72.48;99703.31;2288459;78;21237;-65
2020/12/17 13:19:57;;;;;;;45.67;22.10;;;;;;;5.71;72.26;99698.61;2288915;78;21269;-66
2020/12/17 13:23:00;;;;;;;47.48;23.95;;;;;;;5.66;72.72;99698.73;2288493;78;21138;-65
2020/12/17 13:26:02;;;;;;;51.28;24.20;;;;;;;5.55;73.26;99696.41;2289007;78;21288;-65
2020/12/17 13:29:04;;;;;;;45.38;23.55;;;;;;;5.52;73.44;99682.17;2288856;78;21142;-65
2020/12/17 13:32:06;;;;;;;47.10;22.70;;;;;;;5.52;73.26;99691.74;2288824;78;21729;-65
2020/12/17 13:35:08;;;;;;;46.48;23.00;;;;;;;5.51;73.53;99686.13;2288795;78;21261;-65
2020/12/17 13:38:10;;;;;;;50.48;24.07;;;;;;;5.45;73.15;99692.34;2288526;78;21115;-65
2020/12/17 13:41:13;;;;;;;51.55;24.32;;;;;;;5.43;73.06;99691.54;2292650;77;21107;-65
2020/12/17 13:44:15;;;;;;;48.63;23.22;;;;;;;5.41;73.61;99690.71;2298663;77;21701;-64
2020/12/17 13:47:17;;;;;;;50.70;23.98;;;;;;;5.36;73.66;99692.14;2298680;77;21688;-65
2020/12/17 13:50:20;;;;;;;50.48;24.95;;;;;;;5.34;73.88;99691.77;2298601;77;21261;-65
2020/12/17 13:53:23;;;;;;;51.30;25.52;;;;;;;5.40;73.98;99689.45;2298808;77;21268;-65
2020/12/17 13:56:25;;;;;;;50.55;24.45;;;;;;;5.35;73.93;99685.67;2298422;77;21252;-65
2020/12/17 13:59:27;;;;;;;45.70;22.67;;;;;;;5.34;73.79;99690.46;2298547;77;21700;-65
2020/12/17 14:02:30;;;;;;;40.15;18.48;;;;;;;5.26;73.73;99688.06;2298457;77;21253;-65
2020/12/17 14:05:32;;;;;;;39.75;18.48;;;;;;;5.15;73.57;99684.88;2298866;77;21276;-65
2020/12/17 14:08:34;;;;;;;37.60;16.52;;;;;;;5.13;74.00;99691.84;2298459;77;21115;-65